createdAt,value
2018-02-15T00:03:37.714Z,33.20
2018-02-15T00:08:38.727Z,35.40
2018-02-15T00:13:39.794Z,33.50
2018-02-15T00:18:40.803Z,44.73
2018-02-15T00:23:42.539Z,33.63
2018-02-15T00:28:43.560Z,35.17
2018-02-15T00:33:44.586Z,37.37
2018-02-15T00:38:45.603Z,33.13
2018-02-15T00:43:46.602Z,32.83
2018-02-15T00:48:47.603Z,37.10
2018-02-15T00:53:48.614Z,38.47
2018-02-15T00:58:49.619Z,35.93
2018-02-15T01:03:50.616Z,33.73
2018-02-15T01:08:51.624Z,38.80
2018-02-15T01:13:52.620Z,37.67
2018-02-15T01:18:53.691Z,34.77
2018-02-15T01:23:56.120Z,36.13
2018-02-15T01:28:57.878Z,36.97
2018-02-15T01:33:58.878Z,33.73
2018-02-15T01:38:59.854Z,39.50
2018-02-15T01:44:00.883Z,33.53
2018-02-15T01:49:02.611Z,30.10
2018-02-15T01:54:03.606Z,29.37
2018-02-15T01:59:04.590Z,33.10
2018-02-15T02:04:05.662Z,29.93
2018-02-15T02:09:06.668Z,25.63
2018-02-15T02:14:08.071Z,26.50
2018-02-15T02:19:09.075Z,24.33
2018-02-15T02:24:10.151Z,24.97
2018-02-15T02:29:11.142Z,25.50
2018-02-15T02:34:12.886Z,20.13
2018-02-15T02:39:13.899Z,18.73
2018-02-15T02:44:14.918Z,19.00
2018-02-15T02:49:16.671Z,20.33
2018-02-15T02:54:17.700Z,19.30
2018-02-15T02:59:18.715Z,23.00
2018-02-15T03:04:19.719Z,25.10
2018-02-15T03:09:20.728Z,23.00
2018-02-15T03:14:21.718Z,23.10
2018-02-15T03:19:22.719Z,23.23
2018-02-15T03:24:24.458Z,24.83
2018-02-15T03:29:25.464Z,23.10
2018-02-15T03:34:26.471Z,22.03
2018-02-15T03:39:28.311Z,23.93
2018-02-15T03:44:29.319Z,23.53
2018-02-15T03:49:30.367Z,20.17
2018-02-15T03:54:32.162Z,20.07
2018-02-15T03:59:33.886Z,19.87
2018-02-15T04:04:34.874Z,20.23
2018-02-15T04:09:35.866Z,21.00
2018-02-15T04:14:36.896Z,17.63
2018-02-15T04:19:37.930Z,16.30
2018-02-15T04:24:38.923Z,19.37
2018-02-15T04:29:39.911Z,17.77
2018-02-15T04:34:40.915Z,16.37
2018-02-15T04:39:41.919Z,17.97
2018-02-15T04:44:43.646Z,18.90
2018-02-15T04:49:44.655Z,21.43
2018-02-15T04:54:45.723Z,25.27
2018-02-15T04:59:46.718Z,20.80
2018-02-15T05:04:47.762Z,22.83
2018-02-15T05:09:48.762Z,31.20
2018-02-15T05:14:49.751Z,29.80
2018-02-15T05:19:50.742Z,29.53
2018-02-15T05:24:51.735Z,29.43
2018-02-15T05:29:52.746Z,33.80
2018-02-15T05:34:54.532Z,31.13
2018-02-15T05:39:55.814Z,42.47
2018-02-15T05:44:56.810Z,29.57
2018-02-15T05:49:57.806Z,36.17
2018-02-15T05:54:58.801Z,24.60
2018-02-15T05:59:59.888Z,26.30
2018-02-15T06:05:01.635Z,24.47
2018-02-15T06:10:03.523Z,26.03
2018-02-15T06:15:04.540Z,25.00
2018-02-15T06:20:05.609Z,25.60
2018-02-15T06:25:06.596Z,15.57
2018-02-15T06:30:07.611Z,15.10
2018-02-15T06:35:09.099Z,13.77
2018-02-15T06:40:10.115Z,11.10
2018-02-15T06:45:11.112Z,15.30
2018-02-15T06:50:12.112Z,11.80
2018-02-15T06:55:28.090Z,13.50
2018-02-15T07:00:29.086Z,12.77
2018-02-15T07:05:30.226Z,15.23
2018-02-15T07:10:31.214Z,14.97
2018-02-15T07:15:32.223Z,11.43
2018-02-15T07:20:33.784Z,14.60
2018-02-15T07:25:34.817Z,18.37
2018-02-15T07:30:35.815Z,23.60
2018-02-15T07:35:36.807Z,16.83
2018-02-15T07:40:37.867Z,12.70
2018-02-15T07:45:39.604Z,11.57
2018-02-15T07:50:40.626Z,15.27
2018-02-15T07:55:41.622Z,17.87
2018-02-15T08:00:42.627Z,17.80
2018-02-15T08:05:43.646Z,15.30
2018-02-15T08:10:44.683Z,28.10
2018-02-15T08:15:46.419Z,20.37
2018-02-15T08:20:47.420Z,20.83
2018-02-15T08:25:48.439Z,27.33
2018-02-15T08:30:50.191Z,28.70
2018-02-15T08:35:51.208Z,26.70
2018-02-15T08:40:52.204Z,24.10
2018-02-15T08:45:53.966Z,25.27
2018-02-15T08:50:54.967Z,27.90
2018-02-15T08:55:55.959Z,24.00
2018-02-15T09:00:56.970Z,20.40
2018-02-15T09:05:58.714Z,25.67
2018-02-15T09:10:59.695Z,25.07
2018-02-15T09:16:00.719Z,20.03
2018-02-15T09:21:02.098Z,28.77
2018-02-15T09:26:03.856Z,21.70
2018-02-15T09:31:04.871Z,27.10
2018-02-15T09:36:05.876Z,32.60
2018-02-15T09:41:07.628Z,32.13
2018-02-15T09:46:08.631Z,31.20
2018-02-15T09:51:09.618Z,33.10
2018-02-15T09:56:10.638Z,31.50
2018-02-15T10:01:12.390Z,26.00
2018-02-15T10:06:13.400Z,36.30
2018-02-15T10:11:15.163Z,44.07
2018-02-15T10:16:16.296Z,28.30
2018-02-15T10:21:18.055Z,30.23
2018-02-15T10:26:19.832Z,32.83
2018-02-15T10:31:20.858Z,32.40
2018-02-15T10:36:21.846Z,29.33
2018-02-15T10:41:23.606Z,28.60
2018-02-15T10:46:24.615Z,35.63
2018-02-15T10:51:25.621Z,33.73
2018-02-15T10:56:27.377Z,31.20
2018-02-15T11:01:34.842Z,33.80
2018-02-15T11:06:35.917Z,31.27
2018-02-15T11:11:36.947Z,28.33
2018-02-15T11:16:37.947Z,31.87
2018-02-15T11:21:38.946Z,33.83
2018-02-15T11:26:39.934Z,28.03
2018-02-15T11:31:40.963Z,29.07
2018-02-15T11:36:43.015Z,32.20
2018-02-15T11:41:44.021Z,32.73
2018-02-15T11:46:45.015Z,33.70
2018-02-15T11:51:46.043Z,29.93
2018-02-15T11:56:47.028Z,33.30
2018-02-15T12:01:48.040Z,35.70
2018-02-15T12:06:49.057Z,34.23
2018-02-15T12:11:50.055Z,56.33
2018-02-15T12:16:51.795Z,43.87
2018-02-15T12:21:52.839Z,48.33
2018-02-15T12:26:54.577Z,40.20
2018-02-15T12:31:56.199Z,44.53
2018-02-15T12:36:57.198Z,43.10
2018-02-15T12:41:58.182Z,34.70
2018-02-15T12:46:59.199Z,39.30
2018-02-15T12:52:00.239Z,36.00
2018-02-15T12:57:01.256Z,32.40
2018-02-15T13:02:03.001Z,34.33
2018-02-15T13:07:04.051Z,32.83
2018-02-15T13:12:05.055Z,29.87
2018-02-15T13:17:06.048Z,25.40
2018-02-15T13:22:19.471Z,27.83
2018-02-15T13:27:33.755Z,24.80
2018-02-15T13:32:34.762Z,29.33
2018-02-15T13:37:36.547Z,23.10
2018-02-15T13:42:37.578Z,26.80
2018-02-15T13:47:38.606Z,32.47
2018-02-15T13:52:39.620Z,23.60
2018-02-15T13:57:40.642Z,28.10
2018-02-15T14:02:41.659Z,30.57
2018-02-15T14:07:42.644Z,29.53
2018-02-15T14:12:43.681Z,31.87
2018-02-15T14:17:44.699Z,37.20
2018-02-15T14:22:45.708Z,34.87
2018-02-15T14:27:46.755Z,37.40
2018-02-15T14:32:47.779Z,34.93
2018-02-15T14:37:48.794Z,34.63
2018-02-15T14:42:49.774Z,36.87
2018-02-15T14:47:50.838Z,44.70
2018-02-15T14:52:51.851Z,41.57
2018-02-15T14:57:52.855Z,43.43
2018-02-15T15:02:53.864Z,58.40
2018-02-15T15:07:55.616Z,47.40
2018-02-15T15:12:56.636Z,54.47
2018-02-15T15:17:57.647Z,51.37
2018-02-15T15:22:58.656Z,47.20
2018-02-15T15:27:59.673Z,51.80
2018-02-15T15:33:00.662Z,48.93
2018-02-15T15:38:01.688Z,55.40
2018-02-15T15:43:02.713Z,52.33
2018-02-15T15:48:04.248Z,45.37
2018-02-15T15:53:05.254Z,54.30
2018-02-15T15:58:06.998Z,62.50
2018-02-15T16:03:08.015Z,55.10
2018-02-15T16:08:09.015Z,58.30
2018-02-15T16:13:10.015Z,47.70
2018-02-15T16:18:11.044Z,59.67
2018-02-15T16:23:12.032Z,67.10
2018-02-15T16:28:13.015Z,67.67
2018-02-15T16:33:14.015Z,76.07
2018-02-15T16:38:15.013Z,61.43
2018-02-15T16:43:16.003Z,70.77
2018-02-15T16:48:17.761Z,83.47
2018-02-15T16:53:18.769Z,77.53
2018-02-15T16:58:19.799Z,79.13
2018-02-15T17:03:20.807Z,93.30
2018-02-15T17:08:21.803Z,80.23
2018-02-15T17:13:22.990Z,70.20
2018-02-15T17:18:24.004Z,91.63
2018-02-15T17:23:25.759Z,93.53
2018-02-15T17:28:27.042Z,78.30
2018-02-15T17:33:28.047Z,92.33
2018-02-15T17:38:29.039Z,92.40
2018-02-15T17:43:30.063Z,98.73
2018-02-15T17:48:31.059Z,86.30
2018-02-15T17:53:32.065Z,62.43
2018-02-15T17:58:33.098Z,62.57
2018-02-15T18:03:34.851Z,66.10
2018-02-15T18:08:35.849Z,79.50
2018-02-15T18:13:36.863Z,70.30
2018-02-15T18:18:38.598Z,61.67
2018-02-15T18:23:39.574Z,67.40
2018-02-15T18:28:40.591Z,61.67
2018-02-15T18:33:41.591Z,65.77
2018-02-15T18:38:42.604Z,56.03
2018-02-15T18:43:43.592Z,62.47
2018-02-15T18:48:44.590Z,67.47
2018-02-15T18:53:45.587Z,61.57
2018-02-15T18:58:46.607Z,57.97
2018-02-15T19:03:48.335Z,44.83
2018-02-15T19:08:56.227Z,57.20
2018-02-15T19:13:57.231Z,52.17
2018-02-15T19:18:58.223Z,52.30
2018-02-15T19:24:00.040Z,54.67
2018-02-15T19:29:01.067Z,55.87
2018-02-15T19:34:02.090Z,52.30
2018-02-15T19:39:03.822Z,61.60
2018-02-15T19:44:05.369Z,55.17
2018-02-15T19:49:06.553Z,55.20
2018-02-15T19:54:07.964Z,50.83
2018-02-15T19:59:09.020Z,53.37
2018-02-15T20:04:10.019Z,55.47
2018-02-15T20:09:11.773Z,60.60
2018-02-15T20:14:13.388Z,54.30
2018-02-15T20:19:15.150Z,57.67
2018-02-15T20:24:16.671Z,50.80
2018-02-15T20:29:17.839Z,52.27
2018-02-15T20:34:18.862Z,54.93
2018-02-15T20:39:25.947Z,65.73
2018-02-15T20:44:26.939Z,55.67
2018-02-15T20:49:34.156Z,64.87
2018-02-15T20:54:41.285Z,64.53
2018-02-15T20:59:42.870Z,58.10
2018-02-15T21:04:44.035Z,64.50
2018-02-15T21:09:45.838Z,66.87
2018-02-15T21:14:47.727Z,65.00
2018-02-15T21:19:49.663Z,70.73
2018-02-15T21:24:51.047Z,72.77
2018-02-15T21:29:52.786Z,67.53
2018-02-15T21:34:53.807Z,68.30
2018-02-15T21:39:54.795Z,75.47
2018-02-15T21:44:55.827Z,74.93
2018-02-15T21:49:57.399Z,74.47
2018-02-15T21:54:58.407Z,74.20
2018-02-15T21:59:59.479Z,81.27
2018-02-15T22:05:00.483Z,83.67
2018-02-15T22:10:01.538Z,79.97
2018-02-15T22:15:02.566Z,67.03
2018-02-15T22:20:03.640Z,69.07
2018-02-15T22:25:04.652Z,61.53
2018-02-15T22:30:05.647Z,64.70
2018-02-15T22:35:07.395Z,64.20
2018-02-15T22:40:08.446Z,72.17
2018-02-15T22:45:10.167Z,70.10
2018-02-15T22:50:11.159Z,68.53
2018-02-15T22:55:12.161Z,64.90
2018-02-15T23:00:13.146Z,63.53
2018-02-15T23:05:14.160Z,64.53
2018-02-15T23:10:15.898Z,74.60
2018-02-15T23:15:16.879Z,68.70
2018-02-15T23:20:17.891Z,72.20
2018-02-15T23:25:18.896Z,68.00
2018-02-15T23:30:19.923Z,69.77
2018-02-15T23:35:20.940Z,67.23
2018-02-15T23:40:21.939Z,70.77
2018-02-15T23:45:22.964Z,84.90
2018-02-15T23:50:23.975Z,92.73
2018-02-15T23:55:24.987Z,108.83
